Time;durP1;ratioP1;P1;durP2;ratioP2;P2;SDS_P1;SDS_P2;PMS_P1;PMS_P2;Temp;Humidity;BMP_temperature;BMP_pressure;BME280_temperature;BME280_humidity;BME280_pressure;Samples;Min_cycle;Max_cycle;Signal;HPM_P1;HPM_P2
2021/08/18 00:00:32;;;;;;;12.13;4.10;;;20.70;90.10;;;;;;4272417;27;20050;-71
2021/08/18 00:02:36;;;;;;;13.57;3.78;;;20.70;89.60;;;;;;4272369;27;20059;-72
2021/08/18 00:04:39;;;;;;;11.57;3.70;;;20.80;89.40;;;;;;4272346;27;20047;-72
2021/08/18 00:06:42;;;;;;;16.60;4.07;;;20.70;89.70;;;;;;4272021;27;20051;-71
2021/08/18 00:08:45;;;;;;;13.77;3.67;;;20.60;90.10;;;;;;4272404;27;20051;-70
2021/08/18 00:10:50;;;;;;;11.05;4.00;;;20.60;90.10;;;;;;4272172;27;20059;-68
2021/08/18 00:12:53;;;;;;;11.10;3.53;;;20.50;90.40;;;;;;4272013;27;20051;-70
2021/08/18 00:14:56;;;;;;;7.53;3.75;;;20.60;90.00;;;;;;4272322;27;20051;-72
2021/08/18 00:17:00;;;;;;;14.55;3.80;;;20.60;90.50;;;;;;4272520;27;20459;-71
2021/08/18 00:19:03;;;;;;;7.85;3.55;;;20.70;89.70;;;;;;4272408;27;20506;-72
2021/08/18 00:21:06;;;;;;;15.80;4.63;;;20.80;89.80;;;;;;4272592;27;20280;-69
2021/08/18 00:23:10;;;;;;;12.57;3.90;;;20.70;90.10;;;;;;4275469;27;20142;-70
2021/08/18 00:25:13;;;;;;;8.82;3.58;;;20.70;89.30;;;;;;4257520;27;20277;-71
2021/08/18 00:27:17;;;;;;;12.43;3.90;;;20.80;90.00;;;;;;4275625;27;20284;-70
2021/08/18 00:29:20;;;;;;;10.73;3.72;;;20.70;89.50;;;;;;4275700;27;20088;-71
2021/08/18 00:31:23;;;;;;;9.65;3.55;;;20.70;89.70;;;;;;4275635;27;20281;-72
2021/08/18 00:33:26;;;;;;;9.77;3.55;;;20.60;89.50;;;;;;4275631;27;20092;-71
2021/08/18 00:35:29;;;;;;;14.15;4.10;;;20.60;89.40;;;;;;4275918;27;20050;-71
2021/08/18 00:37:32;;;;;;;13.95;3.80;;;20.70;89.30;;;;;;4275200;27;20138;-72
2021/08/18 00:39:35;;;;;;;12.25;3.75;;;20.60;89.90;;;;;;4275274;27;20051;-71
2021/08/18 00:41:38;;;;;;;12.23;3.47;;;20.50;90.30;;;;;;4275385;27;20055;-71
2021/08/18 00:43:43;;;;;;;10.77;3.55;;;20.50;90.20;;;;;;4275326;27;20342;-70
2021/08/18 00:45:46;;;;;;;11.77;3.50;;;20.50;90.20;;;;;;4275457;27;20100;-72
2021/08/18 00:47:51;;;;;;;13.00;3.75;;;20.60;90.10;;;;;;4275347;27;20046;-70
2021/08/18 00:49:54;;;;;;;10.88;3.00;;;20.60;90.10;;;;;;4275431;27;20055;-71
2021/08/18 00:51:58;;;;;;;16.77;4.13;;;20.60;90.10;;;;;;4275015;27;20103;-71
2021/08/18 00:54:16;;;;;;;13.88;3.38;;;20.60;90.20;;;;;;4274972;27;20054;-72
2021/08/18 00:56:19;;;;;;;14.82;4.05;;;20.50;90.20;;;;;;4275405;27;20264;-71
2021/08/18 00:58:23;;;;;;;11.48;3.60;;;20.40;90.70;;;;;;4275078;27;20051;-70
2021/08/18 01:00:28;;;;;;;11.63;3.88;;;20.40;90.20;;;;;;4274894;27;20111;-70
2021/08/18 01:02:33;;;;;;;14.60;4.07;;;20.40;90.60;;;;;;4275131;27;20055;-69
2021/08/18 01:04:36;;;;;;;8.80;2.75;;;20.50;90.60;;;;;;4275192;27;20055;-71
2021/08/18 01:06:41;;;;;;;12.13;3.95;;;20.40;90.30;;;;;;4275072;27;20050;-72
2021/08/18 01:08:44;;;;;;;10.52;3.72;;;20.40;90.50;;;;;;4274775;27;20339;-72
2021/08/18 01:10:47;;;;;;;14.82;3.50;;;20.60;90.00;;;;;;4274973;27;20110;-70
2021/08/18 01:12:51;;;;;;;11.02;3.58;;;20.60;89.90;;;;;;4274785;27;20216;-69
2021/08/18 01:14:55;;;;;;;11.20;3.50;;;20.70;89.60;;;;;;4274577;27;20051;-71
2021/08/18 01:16:59;;;;;;;13.32;3.40;;;20.70;89.50;;;;;;4274975;27;20366;-71
2021/08/18 01:19:03;;;;;;;11.63;3.70;;;20.60;90.20;;;;;;4274929;27;20338;-70
2021/08/18 01:21:07;;;;;;;10.32;3.10;;;20.40;90.50;;;;;;4274851;27;20115;-69
2021/08/18 01:23:12;;;;;;;12.23;3.57;;;20.50;90.20;;;;;;4274784;27;20058;-70
2021/08/18 01:25:16;;;;;;;12.02;3.53;;;20.50;90.40;;;;;;4274802;27;20574;-71
2021/08/18 01:27:19;;;;;;;13.10;3.33;;;20.40;90.30;;;;;;4274369;27;20095;-70
2021/08/18 01:29:23;;;;;;;9.70;3.35;;;20.60;90.10;;;;;;4274853;27;20050;-70
2021/08/18 01:31:27;;;;;;;14.82;3.85;;;20.60;89.90;;;;;;4274813;27;20212;-71
2021/08/18 01:33:29;;;;;;;15.98;3.78;;;20.50;90.00;;;;;;4274036;27;20062;-71
2021/08/18 01:35:34;;;;;;;11.98;3.13;;;20.50;90.30;;;;;;4274594;27;20051;-72
2021/08/18 01:37:37;;;;;;;;;;;20.50;90.20;;;;;;4275219;27;20099;-70
2021/08/18 01:39:40;;;;;;;9.48;3.22;;;20.50;90.10;;;;;;4274555;27;19915;-69
2021/08/18 01:41:43;;;;;;;7.88;3.00;;;20.60;90.00;;;;;;4274487;27;20099;-71
2021/08/18 01:43:46;;;;;;;9.75;3.15;;;20.60;89.60;;;;;;4274510;27;20054;-70
2021/08/18 01:45:51;;;;;;;12.05;3.38;;;20.70;89.60;;;;;;4274492;27;20050;-70
2021/08/18 01:47:55;;;;;;;15.20;3.25;;;20.60;90.10;;;;;;4256421;27;20410;-71
2021/08/18 01:49:58;;;;;;;11.10;3.35;;;20.60;89.50;;;;;;4274035;27;20109;-71
2021/08/18 01:52:01;;;;;;;13.70;3.00;;;20.60;89.50;;;;;;4273814;27;20103;-70
2021/08/18 01:54:04;;;;;;;10.00;3.22;;;20.60;89.70;;;;;;4273717;27;20063;-69
2021/08/18 01:56:08;;;;;;;10.18;3.53;;;20.60;90.00;;;;;;4274375;27;20111;-70
2021/08/18 01:58:11;;;;;;;12.52;3.53;;;20.50;90.00;;;;;;4273936;27;20125;-70
2021/08/18 02:00:15;;;;;;;8.98;3.05;;;20.40;90.50;;;;;;4274199;27;20058;-71
2021/08/18 02:02:20;;;;;;;15.10;3.15;;;20.50;90.30;;;;;;4274129;27;20119;-70
2021/08/18 02:04:23;;;;;;;14.80;3.85;;;20.50;89.80;;;;;;4273941;27;20099;-70
2021/08/18 02:06:29;;;;;;;9.02;3.17;;;20.60;90.00;;;;;;4273934;27;20251;-70
2021/08/18 02:08:32;;;;;;;11.68;3.00;;;20.60;90.00;;;;;;4274266;27;20268;-72
2021/08/18 02:10:35;;;;;;;9.57;2.72;;;20.60;89.70;;;;;;4274094;27;20111;-71
2021/08/18 02:12:39;;;;;;;11.88;2.97;;;20.50;90.00;;;;;;4273858;27;20043;-70
2021/08/18 02:14:42;;;;;;;13.55;3.20;;;20.50;90.00;;;;;;4273902;27;20101;-73
2021/08/18 02:16:45;;;;;;;10.20;2.95;;;20.40;90.10;;;;;;4255644;27;20473;-72
2021/08/18 02:18:49;;;;;;;7.60;2.92;;;20.50;90.00;;;;;;4273699;27;20050;-71
2021/08/18 02:20:52;;;;;;;7.80;2.60;;;20.40;90.30;;;;;;4255733;27;20314;-72
2021/08/18 02:22:56;;;;;;;10.70;2.97;;;20.50;90.00;;;;;;4273833;27;20103;-70
2021/08/18 02:24:59;;;;;;;8.52;2.80;;;20.50;90.20;;;;;;4273718;27;20050;-71
2021/08/18 02:27:02;;;;;;;12.48;3.17;;;20.40;90.40;;;;;;4273597;27;20467;-71
2021/08/18 02:29:05;;;;;;;8.32;2.60;;;20.40;90.50;;;;;;4273374;27;20372;-70
2021/08/18 02:31:09;;;;;;;10.70;3.13;;;20.40;90.60;;;;;;4273565;27;20047;-70
2021/08/18 02:33:14;;;;;;;11.10;2.42;;;20.30;90.90;;;;;;4273884;27;20047;-69
2021/08/18 02:35:20;;;;;;;8.82;2.78;;;20.20;90.90;;;;;;4273724;27;20107;-70
2021/08/18 02:37:23;;;;;;;10.20;3.00;;;20.30;91.00;;;;;;4273411;27;20050;-70
2021/08/18 02:39:26;;;;;;;8.65;2.80;;;20.30;90.80;;;;;;4273623;27;20051;-71
2021/08/18 02:41:29;;;;;;;10.65;2.88;;;20.20;90.90;;;;;;4273377;27;20051;-69
2021/08/18 02:43:32;;;;;;;8.75;2.72;;;20.20;90.90;;;;;;4273357;27;20398;-71
2021/08/18 02:45:35;;;;;;;10.55;3.50;;;20.20;91.80;;;;;;4272165;27;20054;-71
2021/08/18 02:47:38;;;;;;;12.20;2.70;;;20.00;92.00;;;;;;4273390;27;20050;-70
2021/08/18 02:49:41;;;;;;;5.47;2.40;;;20.00;92.20;;;;;;4273558;27;20046;-71
2021/08/18 02:51:46;;;;;;;8.40;2.65;;;20.10;91.70;;;;;;4273291;27;20054;-71
2021/08/18 02:53:48;;;;;;;10.25;3.35;;;20.20;91.70;;;;;;4273220;27;20331;-69
2021/08/18 02:55:51;;;;;;;5.47;2.40;;;20.20;91.90;;;;;;4273366;27;20050;-70
2021/08/18 02:57:55;;;;;;;13.18;2.88;;;20.20;91.40;;;;;;4273024;27;20051;-71
2021/08/18 02:59:58;;;;;;;14.93;3.28;;;20.30;91.30;;;;;;4273149;27;20094;-68
2021/08/18 03:02:01;;;;;;;11.00;3.00;;;20.30;91.50;;;;;;4273031;27;20046;-70
2021/08/18 03:04:04;;;;;;;8.98;2.83;;;20.20;91.80;;;;;;4273164;27;20241;-71
2021/08/18 03:06:07;;;;;;;8.25;3.15;;;20.20;91.50;;;;;;4273199;27;20062;-72
2021/08/18 03:08:12;;;;;;;7.47;2.33;;;20.20;91.40;;;;;;4272917;27;20281;-70
2021/08/18 03:10:15;;;;;;;9.27;2.53;;;20.20;91.10;;;;;;4254930;27;20051;-71
2021/08/18 03:12:18;;;;;;;8.73;2.30;;;20.30;91.20;;;;;;4272804;27;20467;-72
2021/08/18 03:14:21;;;;;;;9.52;2.80;;;20.30;91.10;;;;;;4273123;27;20055;-72
2021/08/18 03:16:24;;;;;;;12.85;3.08;;;20.30;91.00;;;;;;4273029;27;20071;-71
2021/08/18 03:18:29;;;;;;;11.23;2.85;;;20.30;91.20;;;;;;4254618;27;20070;-70
2021/08/18 03:20:32;;;;;;;9.55;2.90;;;20.20;91.40;;;;;;4272696;27;20059;-70
2021/08/18 03:22:35;;;;;;;10.20;2.88;;;20.20;91.40;;;;;;4272836;27;20058;-71
2021/08/18 03:24:39;;;;;;;11.95;3.53;;;20.20;91.20;;;;;;4272877;27;20119;-70
2021/08/18 03:26:42;;;;;;;9.93;2.60;;;20.30;91.00;;;;;;4272771;27;20095;-72
2021/08/18 03:28:45;;;;;;;9.20;3.30;;;20.30;91.00;;;;;;4272792;27;20055;-71
2021/08/18 03:30:48;;;;;;;9.10;2.88;;;20.40;90.70;;;;;;4272910;27;20046;-69
2021/08/18 03:32:51;;;;;;;10.75;2.75;;;20.40;90.70;;;;;;4272713;27;20051;-71
2021/08/18 03:34:55;;;;;;;16.13;3.05;;;20.40;91.00;;;;;;4272702;27;20107;-71
2021/08/18 03:36:58;;;;;;;10.63;3.25;;;20.30;90.90;;;;;;4272399;27;20055;-71
2021/08/18 03:39:01;;;;;;;8.70;2.60;;;20.40;90.80;;;;;;4272608;27;20046;-71
2021/08/18 03:41:06;;;;;;;11.25;2.70;;;20.40;90.60;;;;;;4272795;27;20099;-72
2021/08/18 03:43:08;;;;;;;;;;;20.30;90.80;;;;;;4273088;27;20054;-68
2021/08/18 03:45:12;;;;;;;10.32;2.38;;;20.30;90.90;;;;;;4272352;27;19918;-69
2021/08/18 03:47:15;;;;;;;11.85;2.50;;;20.20;91.20;;;;;;4272593;27;20051;-70
2021/08/18 03:49:18;;;;;;;9.82;2.92;;;20.20;91.30;;;;;;4271739;27;20055;-71
2021/08/18 03:51:21;;;;;;;10.30;2.47;;;20.20;91.00;;;;;;4272119;27;20051;-70
2021/08/18 03:53:24;;;;;;;8.68;3.00;;;20.20;91.60;;;;;;4272525;27;20051;-69
2021/08/18 03:55:27;;;;;;;9.18;3.33;;;20.20;91.20;;;;;;4254168;27;20062;-70
2021/08/18 03:57:31;;;;;;;12.52;3.10;;;20.30;91.30;;;;;;4254353;28;20092;-70
2021/08/18 03:59:34;;;;;;;8.73;2.88;;;20.40;90.90;;;;;;4272598;27;20050;-71
2021/08/18 04:01:38;;;;;;;8.00;2.65;;;20.30;91.00;;;;;;4272355;27;20047;-70
2021/08/18 04:03:41;;;;;;;9.27;2.72;;;20.40;91.20;;;;;;4272546;27;20055;-71
2021/08/18 04:05:44;;;;;;;9.88;3.03;;;20.40;90.90;;;;;;4272564;27;20050;-71
2021/08/18 04:07:47;;;;;;;12.13;3.17;;;20.30;91.50;;;;;;4272292;27;20099;-72
2021/08/18 04:09:54;;;;;;;9.10;3.17;;;20.40;91.10;;;;;;4272219;27;20350;-69
2021/08/18 04:11:57;;;;;;;9.40;2.92;;;20.30;91.50;;;;;;4272451;27;20293;-72
2021/08/18 04:14:01;;;;;;;8.18;2.60;;;20.40;91.30;;;;;;4271967;27;20231;-71
2021/08/18 04:16:05;;;;;;;10.43;3.20;;;20.30;91.50;;;;;;4272454;27;20226;-69
2021/08/18 04:18:10;;;;;;;9.10;2.72;;;20.30;91.90;;;;;;4272581;27;20050;-71
2021/08/18 04:20:14;;;;;;;16.38;3.35;;;20.30;91.80;;;;;;4272139;27;20280;-69
2021/08/18 04:22:17;;;;;;;7.93;3.15;;;20.40;91.50;;;;;;4272275;27;20050;-70
2021/08/18 04:24:23;;;;;;;12.75;3.65;;;20.30;92.20;;;;;;4272294;27;20058;-72
2021/08/18 04:26:26;;;;;;;11.63;3.35;;;20.40;91.20;;;;;;4272343;27;20115;-71
2021/08/18 04:28:29;;;;;;;10.40;2.90;;;20.40;91.80;;;;;;4272032;27;20399;-72
2021/08/18 04:30:33;;;;;;;13.27;3.80;;;20.40;91.30;;;;;;4272378;27;20452;-72
2021/08/18 04:32:36;;;;;;;8.75;2.83;;;20.40;91.40;;;;;;4271980;27;20098;-70
2021/08/18 04:34:39;;;;;;;8.52;3.03;;;20.40;91.30;;;;;;4272433;27;20051;-70
2021/08/18 04:36:42;;;;;;;11.25;3.38;;;20.40;91.20;;;;;;4271974;27;20100;-71
2021/08/18 04:38:45;;;;;;;11.20;3.33;;;20.40;91.30;;;;;;4272091;27;20050;-70
2021/08/18 04:40:48;;;;;;;8.38;3.10;;;20.30;91.60;;;;;;4272157;27;20092;-71
2021/08/18 04:42:53;;;;;;;;;;;20.30;91.60;;;;;;4272850;27;20106;-71
2021/08/18 04:44:56;;;;;;;9.23;2.95;;;20.20;91.60;;;;;;4254210;27;19915;-71
2021/08/18 04:47:00;;;;;;;10.20;3.40;;;20.30;91.40;;;;;;4272264;27;20284;-70
2021/08/18 04:49:04;;;;;;;10.35;3.33;;;20.20;91.50;;;;;;4272148;27;20054;-72
2021/08/18 04:51:06;;;;;;;11.88;4.00;;;20.30;91.30;;;;;;4253882;27;20052;-71
2021/08/18 04:53:10;;;;;;;11.23;3.63;;;20.20;91.60;;;;;;4272054;27;20233;-70
2021/08/18 04:55:14;;;;;;;11.07;3.15;;;20.30;91.60;;;;;;4271789;27;20046;-70
2021/08/18 04:57:17;;;;;;;9.93;3.28;;;20.20;91.70;;;;;;4271964;27;20054;-71
2021/08/18 04:59:20;;;;;;;6.43;2.72;;;20.30;91.30;;;;;;4271976;27;20050;-70
2021/08/18 05:01:23;;;;;;;11.02;3.13;;;20.30;91.80;;;;;;4272021;27;20387;-71
2021/08/18 05:03:27;;;;;;;13.45;3.83;;;20.20;91.90;;;;;;4272163;27;20342;-70
2021/08/18 05:05:31;;;;;;;15.00;3.67;;;20.30;91.90;;;;;;4253876;27;20059;-72
2021/08/18 05:07:34;;;;;;;13.73;3.85;;;20.20;91.90;;;;;;4272032;27;20386;-70
2021/08/18 05:09:37;;;;;;;12.10;3.72;;;20.10;92.50;;;;;;4274830;27;20275;-70
2021/08/18 05:11:39;;;;;;;16.13;4.05;;;20.10;92.40;;;;;;4274862;27;20050;-69
2021/08/18 05:13:42;;;;;;;7.32;3.00;;;20.10;92.40;;;;;;4275186;27;20050;-72
2021/08/18 05:15:45;;;;;;;8.23;3.40;;;20.10;92.20;;;;;;4274965;27;20095;-70
2021/08/18 05:17:48;;;;;;;11.93;3.38;;;20.10;92.70;;;;;;4274884;27;20091;-69
2021/08/18 05:19:52;;;;;;;8.18;3.13;;;20.10;92.50;;;;;;4275090;27;20051;-71
2021/08/18 05:21:55;;;;;;;10.35;3.25;;;20.10;92.40;;;;;;4274829;27;20276;-71
2021/08/18 05:23:58;;;;;;;9.95;3.28;;;20.20;92.10;;;;;;4274481;27;20147;-70
2021/08/18 05:26:01;;;;;;;9.75;3.50;;;20.20;92.10;;;;;;4274884;27;20046;-71
2021/08/18 05:28:05;;;;;;;12.60;3.10;;;20.20;92.10;;;;;;4274808;27;20091;-70
2021/08/18 05:30:10;;;;;;;15.02;3.33;;;20.20;92.20;;;;;;4274852;27;20087;-71
2021/08/18 05:32:13;;;;;;;12.88;3.55;;;20.30;92.00;;;;;;4275041;27;20047;-68
2021/08/18 05:34:16;;;;;;;10.40;3.35;;;20.30;91.90;;;;;;4274717;27;20103;-70
2021/08/18 05:36:22;;;;;;;9.50;3.42;;;20.20;92.20;;;;;;4274526;27;20050;-71
2021/08/18 05:38:25;;;;;;;12.60;3.00;;;20.10;92.30;;;;;;4274774;27;20087;-71
2021/08/18 05:40:28;;;;;;;11.70;3.05;;;20.10;92.70;;;;;;4274780;27;20050;-70
2021/08/18 05:42:31;;;;;;;15.35;4.25;;;20.10;92.50;;;;;;4274541;27;20050;-68
2021/08/18 05:44:34;;;;;;;19.73;3.95;;;20.00;93.00;;;;;;4274602;27;20099;-71
2021/08/18 05:46:37;;;;;;;14.45;4.20;;;20.10;92.80;;;;;;4274583;27;20063;-71
2021/08/18 05:48:40;;;;;;;11.23;4.18;;;20.10;92.70;;;;;;4273529;27;20087;-69
2021/08/18 05:50:43;;;;;;;11.30;3.13;;;20.10;92.50;;;;;;4273322;27;20054;-71
2021/08/18 05:52:48;;;;;;;11.15;3.35;;;20.20;92.50;;;;;;4273677;27;20334;-69
2021/08/18 05:54:51;;;;;;;7.80;3.50;;;20.30;92.20;;;;;;4273019;27;20054;-71
2021/08/18 05:56:54;;;;;;;10.70;3.45;;;20.30;92.20;;;;;;4273278;27;20055;-70
2021/08/18 05:58:57;;;;;;;10.18;3.33;;;20.30;92.20;;;;;;4273495;27;20285;-69
2021/08/18 06:01:00;;;;;;;13.75;3.95;;;20.40;92.00;;;;;;4255149;27;20107;-69
2021/08/18 06:03:03;;;;;;;14.80;3.45;;;20.30;92.10;;;;;;4273406;27;20047;-71
2021/08/18 06:05:08;;;;;;;16.55;3.80;;;20.40;92.50;;;;;;4273307;27;20091;-72
2021/08/18 06:07:11;;;;;;;9.65;3.25;;;20.40;92.10;;;;;;4274348;27;20276;-69
2021/08/18 06:09:15;;;;;;;13.98;3.47;;;20.40;92.00;;;;;;4273780;27;20046;-71
2021/08/18 06:11:22;;;;;;;12.02;3.90;;;20.30;92.50;;;;;;4273867;27;20055;-71
2021/08/18 06:13:26;;;;;;;11.38;3.75;;;20.20;92.70;;;;;;4273601;27;20100;-72
2021/08/18 06:15:29;;;;;;;6.32;2.90;;;20.40;92.50;;;;;;4273699;27;20107;-69
2021/08/18 06:17:32;;;;;;;6.72;2.83;;;20.40;92.30;;;;;;4274233;27;20059;-71
2021/08/18 06:19:39;;;;;;;16.70;3.72;;;20.40;92.30;;;;;;4256108;27;20050;-70
2021/08/18 06:21:42;;;;;;;10.65;3.00;;;20.50;92.00;;;;;;4255900;27;20088;-69
2021/08/18 06:23:47;;;;;;;9.73;3.08;;;20.60;91.90;;;;;;4273766;27;20050;-70
2021/08/18 06:25:53;;;;;;;11.45;3.88;;;20.50;92.10;;;;;;4273451;27;20059;-70
2021/08/18 06:27:56;;;;;;;12.27;3.50;;;20.60;92.10;;;;;;4274062;27;20253;-70
2021/08/18 06:30:00;;;;;;;9.98;3.60;;;20.60;91.90;;;;;;4273721;27;20095;-70
2021/08/18 06:32:03;;;;;;;10.95;3.47;;;20.60;92.00;;;;;;4273727;27;20058;-71
2021/08/18 06:34:06;;;;;;;11.75;3.15;;;20.50;92.20;;;;;;4273857;27;20047;-70
2021/08/18 06:36:09;;;;;;;8.32;3.33;;;20.50;92.50;;;;;;4273717;27;20107;-72
2021/08/18 06:38:12;;;;;;;6.35;3.10;;;20.50;92.60;;;;;;4273403;27;20513;-72
2021/08/18 06:40:17;;;;;;;11.00;3.45;;;20.50;92.40;;;;;;4273408;27;20047;-71
2021/08/18 06:42:22;;;;;;;7.50;3.15;;;20.50;92.20;;;;;;4273611;27;20076;-69
2021/08/18 06:44:25;;;;;;;8.40;3.42;;;20.60;92.40;;;;;;4273568;27;20100;-71
2021/08/18 06:46:28;;;;;;;12.93;4.05;;;20.60;92.40;;;;;;4273584;27;20111;-72
2021/08/18 06:48:31;;;;;;;8.65;3.45;;;20.40;92.60;;;;;;4273765;27;20381;-72
2021/08/18 06:50:34;;;;;;;10.23;3.45;;;20.50;92.30;;;;;;4273226;27;20071;-72
2021/08/18 06:52:37;;;;;;;11.27;3.63;;;20.50;92.60;;;;;;4273673;27;20050;-69
2021/08/18 06:54:40;;;;;;;11.30;3.88;;;20.50;92.60;;;;;;4273343;27;20046;-69
2021/08/18 06:56:43;;;;;;;13.38;3.92;;;20.60;92.30;;;;;;4273593;27;20046;-70
2021/08/18 06:58:48;;;;;;;16.20;4.15;;;20.70;92.30;;;;;;4254697;27;20051;-70
2021/08/18 07:00:51;;;;;;;11.25;3.88;;;20.70;92.30;;;;;;4273476;27;20375;-69
2021/08/18 07:02:54;;;;;;;12.95;3.63;;;20.80;92.10;;;;;;4273292;27;20054;-71
2021/08/18 07:05:03;;;;;;;10.77;3.88;;;20.70;92.10;;;;;;4272955;27;20092;-71
2021/08/18 07:07:06;;;;;;;10.77;4.00;;;20.70;92.60;;;;;;4273102;27;20095;-71
2021/08/18 07:09:08;;;;;;;10.68;3.22;;;20.70;92.50;;;;;;4273263;27;20050;-70
2021/08/18 07:11:11;;;;;;;11.35;3.72;;;20.70;92.70;;;;;;4255095;27;20050;-69
2021/08/18 07:13:14;;;;;;;11.38;4.03;;;20.80;92.60;;;;;;4272701;27;20055;-68
2021/08/18 07:15:19;;;;;;;8.75;3.40;;;20.80;92.40;;;;;;4272585;27;20054;-71
2021/08/18 07:17:22;;;;;;;14.98;4.28;;;20.90;92.30;;;;;;4272547;27;20403;-72
2021/08/18 07:19:25;;;;;;;8.82;3.40;;;21.00;92.10;;;;;;4272680;27;20119;-72
2021/08/18 07:21:28;;;;;;;7.05;3.60;;;21.10;91.90;;;;;;4272519;27;20095;-72
2021/08/18 07:23:31;;;;;;;9.70;3.38;;;21.00;91.90;;;;;;4272771;27;20091;-70
2021/08/18 07:25:34;;;;;;;7.57;3.00;;;21.20;91.60;;;;;;4272329;27;20283;-72
2021/08/18 07:27:37;;;;;;;11.88;3.88;;;21.10;91.80;;;;;;4272817;27;20107;-71
2021/08/18 07:29:40;;;;;;;9.43;3.13;;;21.20;91.70;;;;;;4272917;27;20382;-71
2021/08/18 07:31:44;;;;;;;6.70;2.92;;;21.10;91.90;;;;;;4272394;27;20066;-71
2021/08/18 07:33:48;;;;;;;8.32;3.15;;;21.10;91.60;;;;;;4272739;27;20059;-70
2021/08/18 07:35:51;;;;;;;12.13;3.40;;;21.10;91.60;;;;;;4272640;27;20276;-72
2021/08/18 07:37:54;;;;;;;11.93;3.17;;;21.10;91.70;;;;;;4272708;27;20281;-70
2021/08/18 07:39:57;;;;;;;7.40;3.33;;;21.20;91.60;;;;;;4272851;27;20058;-69
2021/08/18 07:42:00;;;;;;;8.57;2.90;;;21.20;91.50;;;;;;4272613;27;20092;-71
2021/08/18 07:44:06;;;;;;;10.15;3.60;;;21.30;91.80;;;;;;4272627;27;20107;-73
2021/08/18 07:46:10;;;;;;;10.00;2.70;;;21.20;91.90;;;;;;4272692;27;20103;-72
2021/08/18 07:48:15;;;;;;;9.00;3.20;;;21.20;91.70;;;;;;4272821;27;20088;-71
2021/08/18 07:50:17;;;;;;;10.82;3.40;;;21.20;91.90;;;;;;4272790;27;20874;-70
2021/08/18 07:52:20;;;;;;;12.27;3.72;;;21.20;91.70;;;;;;4272514;27;20098;-71
2021/08/18 07:54:23;;;;;;;7.68;3.17;;;21.20;91.70;;;;;;4272325;27;20046;-70
2021/08/18 07:56:31;;;;;;;5.65;3.20;;;21.30;91.70;;;;;;4272550;27;20339;-70
2021/08/18 07:58:34;;;;;;;12.00;3.60;;;21.30;91.90;;;;;;4272419;27;20051;-72
2021/08/18 08:00:39;;;;;;;9.93;3.45;;;21.30;91.70;;;;;;4272461;27;20054;-71
2021/08/18 08:02:44;;;;;;;8.63;2.58;;;21.40;91.60;;;;;;4272605;27;20330;-69
2021/08/18 08:04:49;;;;;;;9.55;3.30;;;21.40;91.50;;;;;;4272194;27;20051;-70
2021/08/18 08:06:52;;;;;;;7.45;2.95;;;21.40;91.70;;;;;;4254350;27;20078;-71
2021/08/18 08:08:55;;;;;;;8.32;3.10;;;21.40;91.60;;;;;;4272679;27;20272;-69
2021/08/18 08:10:58;;;;;;;11.57;3.15;;;21.50;91.60;;;;;;4272262;27;20050;-68
2021/08/18 08:13:04;;;;;;;7.65;2.95;;;21.60;91.40;;;;;;4254216;27;20051;-70
2021/08/18 08:15:09;;;;;;;11.35;3.63;;;21.40;91.60;;;;;;4272838;27;20107;-70
2021/08/18 08:17:12;;;;;;;;;;;21.50;91.80;;;;;;4272987;27;20055;-70
2021/08/18 08:19:15;;;;;;;10.93;3.22;;;21.60;91.40;;;;;;4272188;27;19915;-72
2021/08/18 08:21:19;;;;;;;7.82;2.72;;;21.60;91.40;;;;;;4271934;27;20274;-68
2021/08/18 08:23:22;;;;;;;7.22;3.13;;;21.60;91.40;;;;;;4272196;27;20241;-71
2021/08/18 08:25:25;;;;;;;10.02;3.10;;;21.60;91.50;;;;;;4272346;27;20103;-68
2021/08/18 08:27:28;;;;;;;6.05;2.90;;;21.60;91.40;;;;;;4271663;27;20058;-72
2021/08/18 08:29:31;;;;;;;8.82;3.30;;;21.60;91.40;;;;;;4264213;27;20059;-70
2021/08/18 08:31:35;;;;;;;10.07;3.17;;;21.70;91.40;;;;;;4265594;27;20103;-71
2021/08/18 08:33:43;;;;;;;8.20;3.30;;;21.70;91.30;;;;;;4272033;27;20050;-71
2021/08/18 08:35:51;;;;;;;12.77;3.65;;;21.60;91.30;;;;;;4259742;27;20043;-72
2021/08/18 08:38:09;;;;;;;3.50;2.97;;;21.60;91.20;;;;;;4224861;28;20278;-69
2021/08/18 08:40:17;;;;;;;11.68;3.35;;;21.70;91.20;;;;;;4255367;27;20046;-69
2021/08/18 08:42:24;;;;;;;8.80;3.20;;;21.70;91.10;;;;;;4272298;27;20258;-69
2021/08/18 08:44:33;;;;;;;6.93;3.00;;;21.80;91.00;;;;;;4275264;27;20049;-70
2021/08/18 08:46:42;;;;;;;8.27;3.28;;;21.80;91.00;;;;;;4274414;27;20319;-71
2021/08/18 08:48:49;;;;;;;6.72;2.80;;;21.80;90.90;;;;;;4268519;27;20039;-72
2021/08/18 08:50:55;;;;;;;10.63;3.20;;;21.70;90.90;;;;;;4274151;27;20114;-71
2021/08/18 08:53:01;;;;;;;8.40;2.70;;;21.60;91.10;;;;;;4274455;27;20266;-72
2021/08/18 08:55:08;;;;;;;9.82;3.42;;;21.70;91.00;;;;;;4276138;27;20065;-69
2021/08/18 08:57:13;;;;;;;4.85;3.00;;;21.80;90.80;;;;;;4275718;27;20058;-70
2021/08/18 08:59:21;;;;;;;11.98;3.38;;;21.80;90.90;;;;;;4274268;27;20051;-71
2021/08/18 09:01:25;;;;;;;6.38;2.80;;;21.90;91.10;;;;;;4275428;27;20058;-72
2021/08/18 09:03:28;;;;;;;9.13;2.53;;;22.00;91.10;;;;;;4275393;27;20051;-69
2021/08/18 09:05:32;;;;;;;8.85;2.83;;;22.00;91.00;;;;;;4275374;27;20360;-67
2021/08/18 09:07:35;;;;;;;9.48;2.80;;;22.10;90.80;;;;;;4274232;27;20261;-68
2021/08/18 09:09:40;;;;;;;7.63;3.22;;;22.20;90.50;;;;;;4275076;27;20051;-69
2021/08/18 09:11:47;;;;;;;8.70;3.28;;;22.20;90.60;;;;;;4275427;27;20042;-67
2021/08/18 09:13:52;;;;;;;6.50;3.10;;;22.10;90.50;;;;;;4275356;27;20050;-71
2021/08/18 09:16:04;;;;;;;10.43;3.80;;;22.10;90.70;;;;;;4273915;27;20054;-68
2021/08/18 09:18:08;;;;;;;8.07;4.35;;;22.00;90.80;;;;;;4275197;27;20062;-71
2021/08/18 09:20:13;;;;;;;5.45;3.20;;;22.00;90.60;;;;;;4275250;27;20347;-71
2021/08/18 09:22:21;;;;;;;6.63;3.20;;;22.20;90.50;;;;;;4275320;27;20095;-69
2021/08/18 09:24:27;;;;;;;6.50;3.63;;;22.20;90.30;;;;;;4263607;27;20043;-70
2021/08/18 09:26:35;;;;;;;5.60;2.70;;;22.30;90.50;;;;;;4257827;27;20096;-72
2021/08/18 09:28:41;;;;;;;6.47;2.97;;;22.30;90.20;;;;;;4259743;27;20224;-72
2021/08/18 09:30:59;;;;;;;7.60;3.50;;;22.30;90.20;;;;;;4274646;27;20051;-72
2021/08/18 09:33:10;;;;;;;8.30;3.13;;;22.50;90.30;;;;;;4274984;27;20138;-71
2021/08/18 09:35:14;;;;;;;4.15;2.30;;;22.60;90.00;;;;;;4274699;27;20197;-72
2021/08/18 09:37:17;;;;;;;4.35;2.45;;;22.70;89.00;;;;;;4274856;27;20054;-71
2021/08/18 09:39:22;;;;;;;6.20;2.47;;;22.80;88.90;;;;;;4274929;27;20047;-69
2021/08/18 09:41:29;;;;;;;7.38;2.85;;;22.80;87.70;;;;;;4273681;27;20055;-69
2021/08/18 09:43:32;;;;;;;6.70;2.65;;;22.90;88.40;;;;;;4274663;27;20050;-72
2021/08/18 09:45:39;;;;;;;6.50;2.63;;;23.00;87.90;;;;;;4274932;27;20095;-68
2021/08/18 09:48:06;;;;;;;8.73;2.72;;;22.90;88.00;;;;;;4274648;27;20066;-71
2021/08/18 09:50:09;;;;;;;3.88;2.38;;;23.00;88.50;;;;;;4274845;27;20051;-71
2021/08/18 09:52:19;;;;;;;5.50;2.33;;;23.10;88.70;;;;;;4274924;27;20054;-72
2021/08/18 09:54:23;;;;;;;8.48;1.90;;;23.10;87.80;;;;;;4273878;27;20055;-70
2021/08/18 09:56:41;;;;;;;2.97;1.70;;;23.10;86.70;;;;;;4274443;27;20062;-71
2021/08/18 09:58:47;;;;;;;4.63;1.73;;;23.00;86.70;;;;;;4274605;27;20080;-73
2021/08/18 10:00:53;;;;;;;3.30;1.85;;;23.00;86.70;;;;;;4274547;27;20277;-72
2021/08/18 10:02:57;;;;;;;4.53;2.10;;;23.00;86.50;;;;;;4274546;27;20050;-71
2021/08/18 10:05:02;;;;;;;3.20;1.70;;;23.10;87.00;;;;;;4270761;27;20055;-70
2021/08/18 10:07:10;;;;;;;6.85;1.83;;;23.20;87.00;;;;;;4251382;27;20096;-69
2021/08/18 10:09:13;;;;;;;4.60;2.20;;;23.30;86.40;;;;;;4259136;27;20051;-69
2021/08/18 10:11:17;;;;;;;6.28;2.38;;;23.50;86.20;;;;;;4260905;27;20067;-68
2021/08/18 10:13:22;;;;;;;3.38;2.25;;;23.50;84.80;;;;;;4253270;27;20123;-67
2021/08/18 10:15:25;;;;;;;5.50;2.22;;;23.50;85.00;;;;;;4252234;27;20051;-71
2021/08/18 10:17:31;;;;;;;5.90;2.40;;;23.60;85.10;;;;;;4255475;27;20335;-70
2021/08/18 10:19:35;;;;;;;6.97;2.28;;;23.50;85.00;;;;;;4254850;27;20107;-70
2021/08/18 10:21:38;;;;;;;8.45;2.35;;;23.60;85.40;;;;;;4259578;27;20047;-70
2021/08/18 10:23:43;;;;;;;8.07;2.50;;;23.60;85.20;;;;;;4259221;27;20518;-70
2021/08/18 10:25:50;;;;;;;8.90;2.15;;;23.50;85.50;;;;;;4255449;27;20560;-70
2021/08/18 10:27:53;;;;;;;3.28;2.35;;;23.50;85.50;;;;;;4270779;27;20058;-70
2021/08/18 10:30:20;;;;;;;6.40;2.45;;;23.60;85.20;;;;;;4262857;27;20063;-71
2021/08/18 10:32:37;;;;;;;7.05;2.30;;;23.70;86.00;;;;;;4257220;27;20051;-70
2021/08/18 10:34:43;;;;;;;6.57;2.72;;;23.80;84.80;;;;;;4254434;27;20100;-70
2021/08/18 10:37:02;;;;;;;4.72;2.35;;;23.60;85.20;;;;;;4260046;27;20518;-74
2021/08/18 10:39:26;;;;;;;5.47;2.42;;;23.70;85.20;;;;;;4244711;27;20063;-71
2021/08/18 10:41:58;;;;;;;4.60;2.65;;;23.60;84.90;;;;;;4253953;27;20055;-70
2021/08/18 10:44:01;;;;;;;5.95;2.95;;;23.60;85.10;;;;;;4253837;27;20511;-70